.
WxDataArchive / Data Records for 2006-10-03
2006-10-02 October 2006 2006-10-04

Data Records for Tuesday, 03 October 2006

Time	Temp	Chill	HIndex	Humid	Dewpt	 Wind 	HiWind	WindDir	Rain 	Barom 
-----	----	-----	------	-----	-----	------	------	-------	-----	----- 
00:00	69.8	69.8	69.8	59	54.8	3	7	248	0.00	29.972 
00:05	69.8	69.8	69.8	60	55.3	3	10	248	0.00	29.972 
00:10	69.6	69.6	69.6	60	55.1	2	10	248	0.00	29.972 
00:15	69.4	69.4	69.4	61	55.4	1	5	248	0.00	29.974 
00:20	69.4	69.4	69.4	60	54.9	2	7	248	0.00	29.974 
00:25	69.4	69.4	69.4	60	54.9	2	9	248	0.00	29.974 
00:30	69.4	69.4	69.4	60	54.9	3	10	248	0.00	29.991 
00:35	69.6	69.6	69.6	59	54.6	2	7	248	0.00	29.991 
00:40	69.4	69.4	69.4	60	54.9	2	5	248	0.00	29.991 
00:45	69.3	69.3	69.3	60	54.8	2	6	248	0.00	29.984 
00:50	69.1	69.1	69.1	60	54.6	2	6	248	0.00	29.984 
00:55	68.9	68.9	68.9	60	54.4	2	6	248	0.00	29.984 
01:00	68.9	68.9	68.9	60	54.4	2	11	248	0.00	29.972 
01:05	68.9	68.9	68.9	60	54.4	2	5	270	0.00	29.972 
01:10	68.8	68.8	68.8	60	54.3	3	13	270	0.00	29.972 
01:15	68.9	68.9	68.9	60	54.4	2	5	248	0.00	29.963 
01:20	68.8	68.8	68.8	60	54.3	2	7	248	0.00	29.963 
01:25	68.8	68.8	68.8	61	54.8	2	6	248	0.00	29.963 
01:30	68.6	68.6	68.6	61	54.6	2	7	270	0.00	29.970 
01:35	68.8	68.8	68.8	61	54.8	2	7	248	0.00	29.970 
01:40	68.6	68.6	68.6	62	55.0	1	3	248	0.00	29.970 
01:45	68.6	68.6	68.6	62	55.0	2	5	292	0.00	30.014 
01:50	68.4	68.4	68.4	63	55.3	1	2	315	0.00	30.014 
01:55	68.3	68.3	68.3	63	55.2	0	3	315	0.00	30.014 
02:00	68.3	68.3	68.3	64	55.6	1	3	292	0.00	30.020 
02:05	68.3	68.3	68.3	64	55.6	0	2	292	0.00	30.020 
02:10	68.3	68.3	68.3	64	55.6	1	2	0	0.00	30.020 
02:15	67.8	67.8	67.8	66	56.0	0	1	0	0.00	30.031 
02:20	67.6	67.6	67.6	66	55.8	1	3	292	0.00	30.031 
02:25	67.6	67.6	67.6	68	56.7	0	2	292	0.00	30.031 
02:30	67.4	67.4	67.4	67	56.1	0	1	292	0.00	30.022 
02:35	67.4	67.4	67.4	67	56.1	0	1	292	0.00	30.022 
02:40	67.3	67.3	67.3	68	56.4	0	1	292	0.00	30.022 
02:45	67.1	67.1	67.1	69	56.6	0	1	292	0.00	30.015 
02:50	66.9	66.9	66.9	70	56.8	0	1	292	0.00	30.015 
02:55	66.4	66.4	66.4	72	57.1	0	1	292	0.00	30.015 
03:00	66.3	66.3	66.3	72	57.0	0	2	292	0.00	30.013 
03:05	66.0	66.0	66.0	74	57.5	1	2	292	0.01	30.013 
03:10	65.0	65.0	65.0	79	58.3	1	2	292	0.00	30.013 
03:15	64.2	64.2	64.2	81	58.2	1	3	270	0.01	30.018 
03:20	63.5	63.5	63.5	84	58.6	0	2	248	0.00	30.018 
03:25	63.1	63.1	63.1	86	58.8	0	2	248	0.01	30.018 
03:30	62.7	62.7	62.7	88	59.1	1	2	248	0.00	30.014 
03:35	62.4	62.4	62.4	89	59.1	1	3	248	0.02	30.014 
03:40	62.1	62.1	62.1	91	59.4	1	2	248	0.01	30.014 
03:45	62.0	62.0	62.0	92	59.6	1	2	248	0.01	30.001 
03:50	61.8	61.8	61.8	92	59.4	0	2	248	0.02	30.001 
03:55	61.8	61.8	61.8	93	59.8	1	4	248	0.02	30.001 
04:00	61.6	61.6	61.6	93	59.6	1	3	248	0.01	29.983 
04:05	61.6	61.6	61.6	94	59.9	1	2	248	0.03	29.983 
04:10	61.6	61.6	61.6	94	59.9	1	3	270	0.02	29.983 
04:15	61.5	61.5	61.5	95	60.1	1	4	248	0.01	29.950 
04:20	61.6	61.6	61.6	95	60.2	1	4	90	0.02	29.950 
04:25	61.6	61.6	61.6	95	60.2	1	4	338	0.00	29.950 
04:30	61.6	61.6	61.6	95	60.2	1	4	90	0.01	29.902 
04:35	61.8	61.8	61.8	96	60.6	1	6	248	0.01	29.902 
04:40	61.8	61.8	61.8	96	60.6	1	3	315	0.00	29.902 
04:45	61.8	61.8	61.8	95	60.3	1	2	315	0.00	29.954 
04:50	61.6	61.6	61.6	95	60.2	1	5	225	0.00	29.954 
04:55	61.6	61.6	61.6	95	60.2	2	4	248	0.00	29.954 
05:00	61.6	61.6	61.6	95	60.2	1	5	248	0.00	29.943 
05:05	61.5	61.5	61.5	95	60.1	1	6	248	0.00	29.943 
05:10	61.5	61.5	61.5	95	60.1	1	6	248	0.00	29.943 
05:15	61.3	61.3	61.3	95	59.9	1	4	248	0.00	29.951 
05:20	61.3	61.3	61.3	95	59.9	1	3	248	0.00	29.951 
05:25	61.3	61.3	61.3	95	59.9	1	4	270	0.00	29.951 
05:30	61.2	61.2	61.2	95	59.8	1	2	270	0.00	29.955 
05:35	61.2	61.2	61.2	95	59.8	0	2	270	0.00	29.955 
05:40	61.0	61.0	61.0	95	59.6	1	4	248	0.00	29.955 
05:45	61.0	61.0	61.0	95	59.6	1	3	248	0.00	29.967 
05:50	60.9	60.9	60.9	95	59.5	1	3	248	0.00	29.967 
05:55	60.9	60.9	60.9	95	59.5	1	2	270	0.00	29.967 
06:00	60.9	60.9	60.9	95	59.5	0	2	270	0.00	29.976 
06:05	60.7	60.7	60.7	95	59.3	1	3	270	0.00	29.976 
06:10	60.7	60.7	60.7	95	59.3	1	2	248	0.00	29.976 
06:15	60.5	60.5	60.5	95	59.1	0	2	248	0.00	29.985 
06:20	60.5	60.5	60.5	95	59.1	0	1	248	0.00	29.985 
06:25	60.4	60.4	60.4	95	59.0	0	0	---	0.00	29.985 
06:30	60.2	60.2	60.2	95	58.8	0	1	248	0.00	29.990 
06:35	60.1	60.1	60.1	95	58.7	0	0	---	0.00	29.990 
06:40	59.9	59.9	59.9	95	58.5	0	0	---	0.00	29.990 
06:45	59.8	59.8	59.8	95	58.4	0	0	---	0.00	30.003 
06:50	59.6	59.6	59.6	95	58.2	0	0	---	0.00	30.003 
06:55	59.3	59.3	59.3	95	57.9	0	0	---	0.00	30.003 
07:00	59.0	59.0	59.0	94	57.3	0	0	---	0.00	30.010 
07:05	58.7	58.7	58.7	95	57.3	0	0	---	0.00	30.010 
07:10	58.6	58.6	58.6	95	57.2	0	0	---	0.00	30.010 
07:15	58.3	58.3	58.3	95	56.9	0	0	---	0.00	30.020 
07:20	58.1	58.1	58.1	95	56.7	0	0	---	0.00	30.020 
07:25	57.8	57.8	57.8	95	56.4	0	0	---	0.00	30.020 
07:30	57.6	57.6	57.6	95	56.2	0	1	248	0.00	30.025 
07:35	57.6	57.6	57.6	95	56.2	0	0	---	0.00	30.025 
07:40	57.5	57.5	57.5	96	56.4	0	0	---	0.00	30.025 
07:45	57.5	57.5	57.5	96	56.4	0	0	---	0.01	30.033 
07:50	57.3	57.3	57.3	96	56.2	0	0	---	0.00	30.033 
07:55	57.2	57.2	57.2	96	56.1	0	0	---	0.00	30.033 
08:00	57.0	57.0	57.0	96	55.9	0	0	---	0.00	30.038 
08:05	57.0	57.0	57.0	96	55.9	0	0	---	0.00	30.038 
08:10	57.0	57.0	57.0	96	55.9	0	0	---	0.00	30.038 
08:15	57.2	57.2	57.2	96	56.1	0	0	---	0.00	30.040 
08:20	57.3	57.3	57.3	96	56.2	0	0	---	0.00	30.040 
08:25	57.5	57.5	57.5	96	56.4	0	0	---	0.00	30.040 
08:30	57.6	57.6	57.6	96	56.5	0	0	---	0.00	30.052 
08:35	58.1	58.1	58.1	97	57.3	0	0	---	0.00	30.052 
08:40	58.6	58.6	58.6	97	57.7	0	0	---	0.00	30.052 
08:45	59.0	59.0	59.0	97	58.1	0	1	248	0.00	30.052 
08:50	59.3	59.3	59.3	97	58.4	0	2	248	0.00	30.052 
08:55	59.6	59.6	59.6	97	58.7	0	1	248	0.00	30.052 
09:00	59.8	59.8	59.8	97	58.9	0	2	248	0.00	30.060 
09:05	60.1	60.1	60.1	97	59.2	0	1	248	0.00	30.060 
09:10	60.4	60.4	60.4	97	59.5	0	2	248	0.00	30.060 
09:15	60.7	60.7	60.7	97	59.8	0	1	248	0.00	30.062 
09:20	61.0	61.0	61.0	97	60.1	0	1	248	0.00	30.062 
09:25	61.3	61.3	61.3	97	60.4	0	1	248	0.00	30.062 
09:30	61.6	61.6	61.6	97	60.7	0	1	248	0.00	30.064 
09:35	61.6	61.6	61.6	96	60.4	0	1	248	0.00	30.064 
09:40	61.8	61.8	61.8	96	60.6	0	1	248	0.00	30.064 
09:45	62.0	62.0	62.0	95	60.5	0	1	248	0.00	30.064 
09:50	62.3	62.3	62.3	95	60.8	0	0	---	0.00	30.064 
09:55	62.6	62.6	62.6	95	61.1	0	1	248	0.00	30.064 
10:00	63.2	63.2	63.2	94	61.4	0	1	248	0.00	30.063 
10:05	63.7	63.7	63.7	92	61.3	0	1	248	0.00	30.063 
10:10	64.3	64.3	64.3	91	61.6	0	2	248	0.00	30.063 
10:15	64.8	64.8	64.8	88	61.2	1	3	248	0.00	30.065 
10:20	65.5	65.5	65.5	87	61.5	1	3	248	0.00	30.065 
10:25	66.1	66.1	66.1	85	61.5	1	3	248	0.00	30.065 
10:30	66.6	66.6	66.6	82	60.9	1	3	248	0.00	30.068 
10:35	67.1	67.1	67.1	81	61.1	1	3	270	0.00	30.068 
10:40	67.6	67.6	67.6	81	61.6	1	3	248	0.00	30.068 
10:45	68.1	68.1	68.1	79	61.3	1	3	270	0.00	30.071 
10:50	68.6	68.6	68.6	80	62.2	1	2	292	0.00	30.071 
10:55	69.1	69.1	69.1	77	61.6	0	2	292	0.00	30.071 
11:00	69.4	69.4	69.4	77	61.9	1	3	315	0.00	30.069 
11:05	69.8	69.8	69.8	76	61.9	1	2	315	0.00	30.069 
11:10	69.9	69.9	69.9	76	62.0	1	3	292	0.00	30.069 
11:15	70.3	70.3	70.3	75	62.0	1	3	292	0.00	30.063 
11:20	70.8	70.8	70.8	77	63.2	1	2	315	0.00	30.063 
11:25	71.1	71.1	71.1	75	62.8	1	2	292	0.00	30.063 
11:30	71.6	71.6	71.6	74	62.9	1	3	292	0.00	30.061 
11:35	72.0	72.0	72.0	76	64.0	1	2	292	0.00	30.061 
11:40	72.5	72.5	72.5	72	62.9	1	2	292	0.00	30.061 
11:45	72.7	72.7	72.7	72	63.1	1	2	292	0.00	30.065 
11:50	73.0	73.0	73.0	70	62.6	1	2	315	0.00	30.065 
11:55	73.2	73.2	73.2	70	62.8	1	2	315	0.00	30.065 
12:00	73.5	73.5	73.5	71	63.5	1	2	315	0.00	30.067 
12:05	74.0	74.0	74.0	70	63.6	1	3	315	0.00	30.067 
12:10	74.4	74.4	74.4	69	63.5	1	3	315	0.00	30.067 
12:15	74.7	74.7	74.7	69	63.8	1	3	270	0.00	30.067 
12:20	74.9	74.9	74.9	68	63.6	1	3	270	0.00	30.067 
12:25	74.9	74.9	74.9	69	64.0	1	3	270	0.00	30.067 
12:30	75.3	75.3	77.2	67	63.6	2	3	315	0.00	30.065 
12:35	75.3	75.3	77.1	68	64.0	1	2	270	0.00	30.065 
12:40	75.6	75.6	77.4	68	64.3	0	2	270	0.00	30.065 
12:45	76.0	76.0	77.7	68	64.7	1	2	315	0.00	30.057 
12:50	76.3	76.3	78.1	65	63.6	1	3	315	0.00	30.057 
12:55	76.5	76.5	78.3	66	64.3	1	4	248	0.00	30.057 
13:00	76.7	76.7	78.5	65	64.0	1	3	248	0.00	30.050 
13:05	76.7	76.7	78.5	64	63.6	0	2	292	0.00	30.050 
13:10	76.7	76.7	78.5	66	64.5	0	2	292	0.00	30.050 
13:15	76.7	76.7	78.5	68	65.3	1	3	292	0.00	30.052 
13:20	76.8	76.8	78.6	67	65.0	0	2	315	0.00	30.052 
13:25	77.2	77.2	79.0	67	65.4	0	2	315	0.00	30.052 
13:30	77.4	77.4	79.2	66	65.1	1	2	315	0.00	30.049 
13:35	77.9	77.9	79.8	66	65.6	0	1	315	0.00	30.049 
13:40	77.9	77.9	79.7	64	64.7	0	2	315	0.00	30.049 
13:45	77.9	77.9	79.7	64	64.7	0	2	315	0.00	30.048 
13:50	77.9	77.9	79.6	62	63.8	0	2	315	0.00	30.048 
13:55	78.3	78.3	80.1	63	64.6	0	1	315	0.00	30.048 
14:00	78.5	78.5	80.4	64	65.3	0	2	315	0.00	30.045 
14:05	78.5	78.5	80.3	63	64.8	0	2	315	0.00	30.045 
14:10	78.6	78.6	80.6	66	66.3	0	2	270	0.00	30.045 
14:15	78.8	78.8	80.6	62	64.7	1	2	270	0.00	30.039 
14:20	78.6	78.6	80.6	65	65.8	0	2	270	0.00	30.039 
14:25	78.6	78.6	80.3	61	64.0	1	2	270	0.00	30.039 
14:30	78.6	78.6	80.4	62	64.5	0	2	270	0.00	30.036 
14:35	79.0	79.0	80.9	63	65.3	0	1	270	0.00	30.036 
14:40	79.2	79.2	81.1	63	65.5	0	2	270	0.00	30.036 
14:45	79.6	79.6	81.3	60	64.5	0	2	270	0.00	30.030 
14:50	79.6	79.6	81.3	60	64.5	1	3	270	0.00	30.030 
14:55	79.2	79.2	81.0	61	64.6	0	2	270	0.00	30.030 
15:00	79.0	79.0	81.0	64	65.8	0	2	270	0.00	30.022 
15:05	79.2	79.2	80.9	60	64.1	1	3	270	0.00	30.022 
15:10	79.6	79.6	81.3	60	64.5	1	2	68	0.00	30.022 
15:15	79.6	79.6	81.3	60	64.5	1	3	68	0.00	30.018 
15:20	79.8	79.8	81.5	59	64.2	0	2	90	0.00	30.018 
15:25	79.8	79.8	81.7	61	65.1	1	3	90	0.00	30.018 
15:30	79.9	79.9	81.7	60	64.7	1	3	90	0.00	30.020 
15:35	79.9	79.9	81.7	60	64.7	0	1	90	0.00	30.020 
15:40	79.8	79.8	81.6	60	64.7	1	2	90	0.00	30.020 
15:45	79.8	79.8	81.6	60	64.7	1	2	90	0.00	30.012 
15:50	79.9	79.9	81.6	59	64.3	0	2	90	0.00	30.012 
15:55	80.1	80.1	82.0	61	65.4	0	1	90	0.00	30.012 
16:00	80.5	80.5	82.4	60	65.3	0	2	90	0.00	30.011 
16:05	80.7	80.7	82.4	58	64.5	0	1	90	0.00	30.011 
16:10	80.9	80.9	82.9	60	65.7	1	4	90	0.00	30.011 
16:15	80.7	80.7	82.4	58	64.5	1	3	248	0.00	30.011 
16:20	80.5	80.5	82.3	59	64.8	1	4	248	0.00	30.011 
16:25	80.3	80.3	81.9	58	64.2	1	3	112	0.00	30.011 
16:30	80.3	80.3	81.9	58	64.2	1	4	112	0.00	30.009 
16:35	80.1	80.1	82.0	61	65.4	2	4	90	0.00	30.009 
16:40	80.1	80.1	81.9	60	64.9	0	2	112	0.00	30.009 
16:45	80.1	80.1	81.8	59	64.5	0	2	248	0.00	30.012 
16:50	80.1	80.1	81.8	59	64.5	0	2	225	0.00	30.012 
16:55	79.9	79.9	81.6	59	64.3	1	2	158	0.00	30.012 
17:00	79.8	79.8	81.8	62	65.6	1	3	112	0.00	30.012 
17:05	79.8	79.8	81.4	58	63.7	1	3	112	0.00	30.012 
17:10	79.8	79.8	81.6	60	64.7	0	2	112	0.00	30.012 
17:15	79.8	79.8	81.6	60	64.7	0	1	112	0.00	30.012 
17:20	79.6	79.6	81.3	59	64.0	0	1	112	0.00	30.012 
17:25	79.6	79.6	81.4	61	64.9	0	1	112	0.00	30.012 
17:30	79.6	79.6	81.4	61	64.9	0	3	112	0.00	30.011 
17:35	79.6	79.6	81.3	60	64.5	0	2	112	0.00	30.011 
17:40	79.6	79.6	81.4	61	64.9	0	1	112	0.00	30.011 
17:45	79.6	79.6	81.3	59	64.0	1	2	135	0.00	30.009 
17:50	79.4	79.4	81.0	59	63.8	1	3	135	0.00	30.009 
17:55	79.4	79.4	81.3	62	65.2	0	1	90	0.00	30.009 
18:00	79.2	79.2	81.1	62	65.0	0	0	---	0.00	30.007 
18:05	79.0	79.0	80.9	63	65.3	0	0	---	0.00	30.007 
18:10	78.6	78.6	80.4	63	64.9	0	0	---	0.00	30.007 
18:15	78.5	78.5	80.3	63	64.8	0	0	---	0.00	30.009 
18:20	78.3	78.3	80.2	65	65.5	0	0	---	0.00	30.009 
18:25	78.1	78.1	80.0	65	65.4	0	0	---	0.00	30.009 
18:30	77.9	77.9	79.7	65	65.2	0	0	---	0.00	30.010 
18:35	78.1	78.1	80.0	65	65.4	0	1	90	0.00	30.010 
18:40	78.1	78.1	80.0	67	66.2	0	0	---	0.00	30.010 
18:45	77.9	77.9	79.8	67	66.0	0	0	---	0.00	30.008 
18:50	77.7	77.7	79.6	68	66.3	0	0	---	0.00	30.008 
18:55	77.2	77.2	79.0	68	65.8	0	0	---	0.00	30.008 
19:00	76.8	76.8	78.6	69	65.8	0	0	---	0.00	30.010 
19:05	76.5	76.5	78.2	71	66.4	0	0	---	0.00	30.010 
19:10	76.1	76.1	77.6	73	66.8	0	0	---	0.00	30.010 
19:15	75.8	75.8	77.3	73	66.5	0	0	---	0.00	30.013 
19:20	75.3	75.3	76.6	74	66.4	0	0	---	0.00	30.013 
19:25	74.9	74.9	74.9	74	66.0	0	0	---	0.00	30.013 
19:30	74.2	74.2	74.2	75	65.8	0	0	---	0.00	30.014 
19:35	73.9	73.9	73.9	73	64.7	0	1	90	0.00	30.014 
19:40	73.7	73.7	73.7	73	64.5	0	0	---	0.00	30.014 
19:45	73.5	73.5	73.5	73	64.3	0	1	90	0.00	30.016 
19:50	73.5	73.5	73.5	73	64.3	0	1	90	0.00	30.016 
19:55	73.5	73.5	73.5	73	64.3	0	0	---	0.00	30.016 
20:00	73.3	73.3	73.3	73	64.1	0	1	90	0.00	30.017 
20:05	73.3	73.3	73.3	72	63.7	0	1	90	0.00	30.017 
20:10	73.3	73.3	73.3	72	63.7	0	1	90	0.00	30.017 
20:15	73.3	73.3	73.3	71	63.3	0	1	90	0.00	30.015 
20:20	73.3	73.3	73.3	72	63.7	0	1	90	0.00	30.015 
20:25	73.2	73.2	73.2	71	63.2	0	1	90	0.00	30.015 
20:30	73.2	73.2	73.2	71	63.2	0	2	90	0.00	30.016 
20:35	73.2	73.2	73.2	71	63.2	0	2	90	0.00	30.016 
20:40	73.2	73.2	73.2	71	63.2	0	1	90	0.00	30.016 
20:45	73.2	73.2	73.2	71	63.2	0	1	90	0.00	30.019 
20:50	73.2	73.2	73.2	71	63.2	0	2	90	0.00	30.019 
20:55	73.2	73.2	73.2	71	63.2	0	2	90	0.00	30.019 
21:00	73.0	73.0	73.0	71	63.0	0	1	90	0.00	30.022 
21:05	73.0	73.0	73.0	71	63.0	0	1	90	0.00	30.022 
21:10	72.8	72.8	72.8	71	62.8	0	2	135	0.00	30.022 
21:15	72.8	72.8	72.8	71	62.8	1	2	135	0.00	30.017 
21:20	72.8	72.8	72.8	72	63.2	0	2	112	0.00	30.017 
21:25	72.7	72.7	72.7	72	63.1	0	1	112	0.00	30.017 
21:30	72.7	72.7	72.7	72	63.1	1	4	90	0.00	30.016 
21:35	72.7	72.7	72.7	73	63.5	0	2	90	0.00	30.016 
21:40	72.5	72.5	72.5	73	63.3	0	1	90	0.00	30.016 
21:45	72.3	72.3	72.3	74	63.5	0	1	90	0.00	30.019 
21:50	72.1	72.1	72.1	74	63.3	0	2	90	0.00	30.019 
21:55	71.8	71.8	71.8	75	63.4	0	1	90	0.00	30.019 
22:00	71.8	71.8	71.8	76	63.8	0	2	112	0.00	30.019 
22:05	71.6	71.6	71.6	76	63.6	0	1	112	0.00	30.019 
22:10	71.5	71.5	71.5	77	63.9	0	1	90	0.00	30.019 
22:15	71.5	71.5	71.5	77	63.9	0	3	248	0.00	30.011 
22:20	71.5	71.5	71.5	77	63.9	0	2	248	0.00	30.011 
22:25	71.5	71.5	71.5	77	63.9	1	3	248	0.00	30.011 
22:30	71.5	71.5	71.5	77	63.9	0	1	248	0.00	30.009 
22:35	71.3	71.3	71.3	77	63.7	0	2	248	0.00	30.009 
22:40	71.3	71.3	71.3	77	63.7	0	2	248	0.00	30.009 
22:45	71.1	71.1	71.1	78	63.9	0	1	248	0.00	30.006 
22:50	70.9	70.9	70.9	78	63.7	0	1	248	0.00	30.006 
22:55	70.8	70.8	70.8	79	64.0	0	1	248	0.00	30.006 
23:00	70.6	70.6	70.6	79	63.8	0	2	338	0.00	29.996 
23:05	70.6	70.6	70.6	79	63.8	0	2	270	0.00	29.996 
23:10	70.6	70.6	70.6	79	63.8	0	1	270	0.00	29.996 
23:15	70.6	70.6	70.6	79	63.8	0	2	270	0.00	29.988 
23:20	70.6	70.6	70.6	80	64.1	0	1	270	0.00	29.988 
23:25	70.4	70.4	70.4	80	63.9	0	3	248	0.00	29.988 
23:30	70.6	70.6	70.6	80	64.1	1	4	270	0.00	29.977 
23:35	70.6	70.6	70.6	80	64.1	0	3	270	0.00	29.977 
23:40	70.6	70.6	70.6	80	64.1	1	3	248	0.00	29.977 
23:45	70.6	70.6	70.6	80	64.1	1	4	270	0.00	29.976 
23:50	70.8	70.8	70.8	80	64.3	1	4	248	0.00	29.976 
23:55	71.1	71.1	71.1	79	64.2	1	4	270	0.00	29.976 

CoCoRaHS
IN-AL-39
A2 Web Hosting
Creative Commons License
GoDaddy
Look for:

loaded 2017-12-12 07:06:13 • last modified 2010-11-18 10:43:29
Privacy PolicyDisclaimer
• wx.awcolley.com is powered by PmWiki v.2002016 •
• all content (unless otherwise noted) © 2017 A W Colley